Time;durP1;ratioP1;P1;durP2;ratioP2;P2;SDS_P1;SDS_P2;PMS_P1;PMS_P2;Temp;Humidity;BMP_temperature;BMP_pressure;BME280_temperature;BME280_humidity;BME280_pressure;Samples;Min_cycle;Max_cycle;Signal;HPM_P1;HPM_P2
2023/01/26 00:00:52;;;;;;;69.50;23.30;;;0.00;99.90;;;;;;5046261;28;20461;-76
2023/01/26 00:03:18;;;;;;;68.10;22.80;;;0.00;99.90;;;;;;5048637;28;20041;-76
2023/01/26 00:05:44;;;;;;;72.43;23.35;;;0.00;99.90;;;;;;5049774;28;20080;-75
2023/01/26 00:08:11;;;;;;;68.38;22.52;;;0.00;99.90;;;;;;5055143;28;20093;-75
2023/01/26 00:10:38;;;;;;;64.82;23.83;;;0.50;99.90;;;;;;5060259;28;20044;-76
2023/01/26 00:13:05;;;;;;;66.45;23.13;;;0.00;99.90;;;;;;5056880;28;20057;-76
2023/01/26 00:15:32;;;;;;;67.15;23.30;;;0.10;99.90;;;;;;5049426;28;20358;-75
2023/01/26 00:17:58;;;;;;;74.25;24.08;;;0.10;99.90;;;;;;5053838;28;20045;-76
2023/01/26 00:20:24;;;;;;;68.20;23.98;;;0.10;99.90;;;;;;5058814;28;20036;-76
2023/01/26 00:22:50;;;;;;;68.13;24.25;;;1.00;99.90;;;;;;5047358;28;20659;-76
2023/01/26 00:25:16;;;;;;;62.97;22.88;;;0.10;99.90;;;;;;5051126;28;20079;-76
2023/01/26 00:27:41;;;;;;;61.03;22.63;;;0.10;99.90;;;;;;5029141;28;20208;-76
2023/01/26 00:30:08;;;;;;;66.28;22.70;;;0.10;99.90;;;;;;5053668;28;20072;-78
2023/01/26 00:32:37;;;;;;;68.13;24.10;;;0.10;99.90;;;;;;5059931;28;20040;-76
2023/01/26 00:35:04;;;;;;;66.72;23.33;;;0.10;99.90;;;;;;5033404;28;20045;-76
2023/01/26 00:37:29;;;;;;;67.30;23.35;;;0.20;99.90;;;;;;5055650;28;20055;-76
2023/01/26 00:39:55;;;;;;;67.45;23.67;;;0.10;99.90;;;;;;5049391;28;20037;-76
2023/01/26 00:42:22;;;;;;;73.82;25.13;;;0.20;99.90;;;;;;5063512;28;20032;-76
2023/01/26 00:44:49;;;;;;;69.60;23.73;;;0.10;99.90;;;;;;5051908;28;20048;-74
2023/01/26 00:47:15;;;;;;;70.50;24.00;;;0.20;99.90;;;;;;5047925;28;20033;-76
2023/01/26 00:49:40;;;;;;;70.45;24.92;;;0.20;99.90;;;;;;5066773;28;20052;-76
2023/01/26 00:52:06;;;;;;;71.80;25.02;;;0.40;99.90;;;;;;5059619;28;20080;-76
2023/01/26 00:54:32;;;;;;;71.35;24.40;;;0.20;99.90;;;;;;5050486;28;20041;-76
2023/01/26 00:56:57;;;;;;;68.43;22.98;;;0.20;99.90;;;;;;5033644;28;20521;-76
2023/01/26 00:59:23;;;;;;;71.60;24.38;;;0.20;99.90;;;;;;5064688;28;20032;-76
2023/01/26 01:01:49;;;;;;;71.45;23.67;;;0.20;99.90;;;;;;5035283;28;20316;-75
2023/01/26 01:04:15;;;;;;;64.65;23.17;;;0.20;99.90;;;;;;5060286;28;20044;-76
2023/01/26 01:06:41;;;;;;;72.53;24.13;;;0.20;99.90;;;;;;5051531;28;20033;-76
2023/01/26 01:09:07;;;;;;;67.75;22.75;;;0.30;99.90;;;;;;5064303;28;20374;-76
2023/01/26 01:11:33;;;;;;;74.22;26.08;;;0.20;99.90;;;;;;5061990;28;20032;-76
2023/01/26 01:13:58;;;;;;;68.03;22.73;;;0.20;99.90;;;;;;5056083;28;20044;-76
2023/01/26 01:16:24;;;;;;;64.65;22.83;;;0.20;99.90;;;;;;5051032;28;20056;-76
2023/01/26 01:18:54;;;;;;;64.70;22.92;;;0.30;99.90;;;;;;5061954;28;20033;-75
2023/01/26 01:21:21;;;;;;;72.47;22.13;;;0.30;99.90;;;;;;5052349;28;20086;-75
2023/01/26 01:23:47;;;;;;;65.53;23.15;;;0.30;99.90;;;;;;5044490;28;20045;-76
2023/01/26 01:26:14;;;;;;;70.40;21.83;;;0.20;99.90;;;;;;5051091;28;20036;-76
2023/01/26 01:28:40;;;;;;;59.55;21.00;;;0.30;99.90;;;;;;5064232;28;20032;-76
2023/01/26 01:31:08;;;;;;;61.25;21.77;;;0.30;99.90;;;;;;5036137;28;20049;-76
2023/01/26 01:33:34;;;;;;;61.63;21.88;;;0.30;99.90;;;;;;5048113;28;20040;-76
2023/01/26 01:36:05;;;;;;;57.40;20.65;;;0.30;99.90;;;;;;5051015;28;20064;-76
2023/01/26 01:38:31;;;;;;;56.90;19.75;;;0.30;99.90;;;;;;5050834;28;20037;-75
2023/01/26 01:40:56;;;;;;;60.58;21.48;;;0.30;99.90;;;;;;5049970;28;20509;-76
2023/01/26 01:43:23;;;;;;;60.17;20.73;;;0.30;99.90;;;;;;5052056;28;20512;-76
2023/01/26 01:45:51;;;;;;;56.65;20.13;;;0.30;99.90;;;;;;5043189;28;20044;-74
2023/01/26 01:48:19;;;;;;;58.42;20.50;;;0.30;99.90;;;;;;5047078;28;20041;-76
2023/01/26 01:50:47;;;;;;;58.03;20.30;;;0.30;99.90;;;;;;5048945;28;20045;-76
2023/01/26 01:53:23;;;;;;;58.88;20.23;;;0.30;99.90;;;;;;5074573;28;20449;-76
2023/01/26 01:55:54;;;;;;;65.82;22.02;;;0.30;99.90;;;;;;5057793;28;20123;-75
2023/01/26 01:58:20;;;;;;;61.80;21.05;;;0.30;99.90;;;;;;5057492;28;20032;-76
2023/01/26 02:00:46;;;;;;;60.33;20.55;;;0.30;99.90;;;;;;5058183;28;20041;-75
2023/01/26 02:03:17;;;;;;;56.78;19.30;;;0.30;99.90;;;;;;5050585;28;20037;-75
2023/01/26 02:05:43;;;;;;;56.85;20.33;;;0.30;99.90;;;;;;5063658;28;20040;-75
2023/01/26 02:08:12;;;;;;;54.53;19.33;;;0.30;99.90;;;;;;5054555;28;20041;-76
2023/01/26 02:10:37;;;;;;;53.35;18.58;;;0.40;99.90;;;;;;5050274;28;20082;-78
2023/01/26 02:13:04;;;;;;;57.33;19.38;;;0.30;99.90;;;;;;5058798;28;20044;-76
2023/01/26 02:15:30;;;;;;;58.70;19.33;;;0.40;99.90;;;;;;5033811;28;20076;-77
2023/01/26 02:17:59;;;;;;;58.08;18.52;;;0.30;99.90;;;;;;5064781;28;20082;-77
2023/01/26 02:20:54;;;;;;;53.40;18.45;;;0.30;99.90;;;;;;5044454;28;20041;-76
2023/01/26 02:23:49;;;;;;;55.55;17.98;;;0.40;99.90;;;;;;5039477;28;20052;-76
2023/01/26 02:26:19;;;;;;;48.47;17.15;;;0.40;99.90;;;;;;5058614;28;20442;-76
2023/01/26 02:28:45;;;;;;;52.50;18.42;;;1.00;99.90;;;;;;5044765;28;20066;-76
2023/01/26 02:31:12;;;;;;;57.95;18.98;;;0.40;99.90;;;;;;5053760;28;20338;-76
2023/01/26 02:33:38;;;;;;;52.70;17.48;;;0.40;99.90;;;;;;5048465;28;20079;-78
2023/01/26 02:36:06;;;;;;;49.83;18.15;;;0.40;99.90;;;;;;5059457;28;20104;-77
2023/01/26 02:38:43;;;;;;;50.50;17.55;;;0.40;99.90;;;;;;5035875;28;20037;-76
2023/01/26 02:44:01;;;;;;;45.55;17.73;;;0.40;99.90;;;;;;5065467;28;20051;-75
2023/01/26 02:46:26;;;;;;;52.08;17.65;;;0.50;99.90;;;;;;5042951;28;20045;-76
2023/01/26 02:51:36;;;;;;;51.33;17.80;;;0.40;99.90;;;;;;5048183;28;20052;-75
2023/01/26 02:54:01;;;;;;;50.67;17.30;;;0.40;99.90;;;;;;5040337;28;20029;-75
2023/01/26 02:56:27;;;;;;;58.13;18.80;;;0.50;99.90;;;;;;5045967;28;20080;-75
2023/01/26 02:58:53;;;;;;;55.83;17.95;;;0.50;99.90;;;;;;5063239;28;20040;-75
2023/01/26 03:01:18;;;;;;;54.65;17.33;;;0.50;99.90;;;;;;5038812;28;20086;-75
2023/01/26 03:03:44;;;;;;;51.25;17.33;;;0.50;99.90;;;;;;5041662;28;20041;-75
2023/01/26 03:06:11;;;;;;;52.08;17.73;;;0.50;99.90;;;;;;5057662;28;20484;-75
2023/01/26 03:08:38;;;;;;;48.95;17.08;;;0.50;99.90;;;;;;5049488;28;20433;-75
2023/01/26 03:11:04;;;;;;;51.20;17.85;;;0.50;99.90;;;;;;5056182;28;20048;-76
2023/01/26 03:13:30;;;;;;;54.28;17.48;;;0.50;99.90;;;;;;5049290;28;20049;-74
2023/01/26 03:16:01;;;;;;;50.15;16.73;;;0.50;99.90;;;;;;5052668;28;20048;-75
2023/01/26 03:29:29;;;;;;;52.35;16.55;;;0.50;99.90;;;;;;5048117;28;20489;-75
2023/01/26 03:31:55;;;;;;;48.53;16.98;;;0.50;99.90;;;;;;5046149;28;20099;-75
2023/01/26 03:34:20;;;;;;;45.22;16.77;;;0.50;99.90;;;;;;5064019;28;20072;-74
2023/01/26 03:36:47;;;;;;;46.85;15.25;;;0.50;99.90;;;;;;5052261;28;20033;-75
2023/01/26 03:41:06;;;;;;;48.63;16.45;;;0.60;99.90;;;;;;5064747;28;20044;-75
2023/01/26 03:58:29;;;;;;;41.42;14.15;;;0.60;99.90;;;;;;5052856;28;20078;-75
2023/01/26 04:00:57;;;;;;;46.47;15.73;;;0.60;99.90;;;;;;5061658;28;20409;-76
2023/01/26 04:08:51;;;;;;;42.75;15.20;;;1.00;99.90;;;;;;5060058;28;20052;-74
2023/01/26 04:11:17;;;;;;;41.45;14.32;;;0.70;99.90;;;;;;5062072;28;20044;-74
2023/01/26 04:21:54;;;;;;;42.75;15.52;;;0.60;99.90;;;;;;5060410;28;20151;-74
2023/01/26 04:24:21;;;;;;;47.03;16.27;;;0.60;99.90;;;;;;5052559;28;20128;-74
2023/01/26 04:26:47;;;;;;;40.42;14.63;;;0.60;99.90;;;;;;5058995;28;20048;-74
2023/01/26 04:29:14;;;;;;;40.60;14.48;;;0.70;99.90;;;;;;5060514;28;20175;-74
2023/01/26 04:31:41;;;;;;;44.58;15.15;;;0.70;99.90;;;;;;5065232;28;20501;-74
2023/01/26 04:34:10;;;;;;;44.40;15.40;;;0.60;99.90;;;;;;5060185;28;20041;-74
2023/01/26 04:36:36;;;;;;;39.35;15.13;;;0.70;99.90;;;;;;5050897;28;20082;-74
2023/01/26 04:39:02;;;;;;;39.90;15.02;;;0.70;99.90;;;;;;5030547;28;20037;-74
2023/01/26 04:41:28;;;;;;;40.92;15.15;;;0.70;99.90;;;;;;5058910;28;20424;-74
2023/01/26 04:43:54;;;;;;;41.33;15.18;;;0.70;99.90;;;;;;5066170;28;20056;-74
2023/01/26 04:46:20;;;;;;;45.40;15.48;;;0.70;99.90;;;;;;5054117;28;20032;-76
2023/01/26 04:48:45;;;;;;;45.00;14.77;;;0.90;99.90;;;;;;5051012;28;20102;-74
2023/01/26 04:51:14;;;;;;;38.67;15.20;;;0.90;99.90;;;;;;5054928;28;20040;-74
2023/01/26 04:53:40;;;;;;;41.03;14.45;;;0.70;99.90;;;;;;5053082;28;20049;-74
2023/01/26 04:56:07;;;;;;;43.67;15.80;;;0.70;99.90;;;;;;5057050;28;20122;-74
2023/01/26 04:58:33;;;;;;;41.58;15.48;;;0.70;99.90;;;;;;5052139;28;20515;-75
2023/01/26 05:00:59;;;;;;;39.17;15.02;;;0.70;99.90;;;;;;5058454;28;20040;-74
2023/01/26 05:03:25;;;;;;;41.67;15.18;;;0.70;99.90;;;;;;5046227;28;20039;-75
2023/01/26 05:05:53;;;;;;;38.97;15.10;;;0.70;99.90;;;;;;5062905;28;20043;-75
2023/01/26 05:08:21;;;;;;;36.83;14.07;;;0.70;99.90;;;;;;5048455;28;20078;-76
2023/01/26 05:10:46;;;;;;;36.03;13.75;;;0.70;99.90;;;;;;5034679;28;20053;-75
2023/01/26 05:13:12;;;;;;;38.13;14.50;;;0.70;99.90;;;;;;5063507;28;20499;-74
2023/01/26 05:15:38;;;;;;;38.70;13.77;;;0.70;99.90;;;;;;5062812;28;20036;-74
2023/01/26 05:18:05;;;;;;;37.17;14.18;;;0.70;99.90;;;;;;5051126;28;20044;-74
2023/01/26 05:20:31;;;;;;;33.00;13.75;;;0.70;99.90;;;;;;5055938;28;20485;-74
2023/01/26 05:22:57;;;;;;;34.40;13.38;;;0.70;99.90;;;;;;5061423;28;20118;-75
2023/01/26 05:25:22;;;;;;;39.33;13.85;;;0.80;99.90;;;;;;5062895;28;20091;-74
2023/01/26 05:27:48;;;;;;;38.17;14.30;;;0.80;99.90;;;;;;5053711;28;20128;-76
2023/01/26 05:30:15;;;;;;;32.90;13.88;;;0.80;99.90;;;;;;5054761;28;20499;-75
2023/01/26 05:32:40;;;;;;;39.72;14.48;;;0.80;99.90;;;;;;5058018;28;20147;-74
2023/01/26 05:35:06;;;;;;;38.80;14.82;;;0.80;99.90;;;;;;5059780;28;20041;-74
2023/01/26 05:37:33;;;;;;;38.47;14.02;;;0.80;99.90;;;;;;5055800;28;20041;-74
2023/01/26 05:39:59;;;;;;;39.13;14.32;;;0.80;99.90;;;;;;5042336;28;20405;-74
2023/01/26 05:42:25;;;;;;;40.55;14.55;;;0.80;99.90;;;;;;5060667;28;20036;-75
2023/01/26 05:44:50;;;;;;;40.90;14.52;;;0.80;99.90;;;;;;5061720;28;20045;-74
2023/01/26 05:47:16;;;;;;;45.83;16.05;;;0.80;99.90;;;;;;5055874;28;20448;-74
2023/01/26 05:49:44;;;;;;;38.55;15.10;;;0.80;99.90;;;;;;5051010;28;20032;-74
2023/01/26 05:52:15;;;;;;;43.72;15.48;;;0.80;99.90;;;;;;5057386;28;20057;-74
2023/01/26 05:54:41;;;;;;;38.88;15.63;;;0.80;99.90;;;;;;5050519;28;20048;-74
2023/01/26 05:57:07;;;;;;;42.42;15.95;;;0.80;99.90;;;;;;5049462;28;20485;-75
2023/01/26 05:59:33;;;;;;;42.28;16.08;;;0.80;99.90;;;;;;5028586;28;20489;-75
2023/01/26 06:01:59;;;;;;;42.72;16.42;;;0.80;99.90;;;;;;5050693;28;20044;-75
2023/01/26 06:04:25;;;;;;;40.78;15.88;;;0.90;99.90;;;;;;5043955;28;20037;-75
2023/01/26 06:06:52;;;;;;;40.88;15.30;;;0.80;99.90;;;;;;5041626;28;20094;-75
2023/01/26 06:09:18;;;;;;;45.40;16.38;;;0.90;99.90;;;;;;5039255;28;20090;-75
2023/01/26 06:11:45;;;;;;;46.92;17.92;;;0.90;99.90;;;;;;5039057;28;20066;-75
2023/01/26 06:14:10;;;;;;;46.10;16.80;;;0.90;99.90;;;;;;5033013;28;20176;-75
2023/01/26 06:16:36;;;;;;;42.92;16.23;;;0.90;99.90;;;;;;5037874;28;20565;-74
2023/01/26 06:19:02;;;;;;;50.08;16.63;;;0.80;99.90;;;;;;5042729;28;20064;-74
2023/01/26 06:21:28;;;;;;;45.83;18.05;;;0.90;99.90;;;;;;5056422;28;20069;-74
2023/01/26 06:23:53;;;;;;;42.05;16.40;;;0.90;99.90;;;;;;5050047;28;20097;-74
2023/01/26 06:26:19;;;;;;;50.63;17.30;;;0.90;99.90;;;;;;5052066;28;20033;-74
2023/01/26 06:28:45;;;;;;;49.67;18.08;;;0.90;99.90;;;;;;5050707;28;20559;-74
2023/01/26 06:31:10;;;;;;;46.72;17.13;;;1.00;99.90;;;;;;5051620;28;20033;-74
2023/01/26 06:33:37;;;;;;;50.85;17.08;;;0.90;99.90;;;;;;5055190;28;20120;-75
2023/01/26 06:36:04;;;;;;;45.58;17.10;;;1.00;99.90;;;;;;5027180;28;20068;-75
2023/01/26 06:38:31;;;;;;;48.42;16.55;;;1.00;99.90;;;;;;5053716;28;20121;-75
2023/01/26 06:41:01;;;;;;;53.83;18.27;;;1.00;99.90;;;;;;5049531;28;20069;-75
2023/01/26 06:43:36;;;;;;;48.78;17.15;;;1.00;99.90;;;;;;5049529;28;20068;-75
2023/01/26 06:46:04;;;;;;;51.85;18.17;;;1.00;99.90;;;;;;5049363;28;20037;-75
2023/01/26 06:48:32;;;;;;;49.50;17.42;;;1.00;99.90;;;;;;5057793;28;20116;-74
2023/01/26 06:51:16;;;;;;;51.78;17.83;;;1.00;99.90;;;;;;5049550;28;20048;-75
2023/01/26 06:53:47;;;;;;;51.67;17.58;;;1.00;99.90;;;;;;5053493;28;20394;-74
2023/01/26 06:56:13;;;;;;;54.08;19.50;;;1.00;99.90;;;;;;5048047;28;20488;-75
2023/01/26 06:58:39;;;;;;;46.50;16.70;;;1.00;99.90;;;;;;5054890;28;20037;-73
2023/01/26 07:01:05;;;;;;;53.22;17.92;;;1.10;99.90;;;;;;5039858;28;20366;-73
2023/01/26 07:03:31;;;;;;;45.75;17.95;;;1.10;99.90;;;;;;5049992;28;20114;-74
2023/01/26 07:05:56;;;;;;;53.38;18.05;;;1.10;99.90;;;;;;5048875;28;20091;-74
2023/01/26 07:08:22;;;;;;;53.45;18.13;;;1.10;99.90;;;;;;5054551;28;20040;-74
2023/01/26 07:10:49;;;;;;;50.65;18.77;;;1.10;99.90;;;;;;5057987;28;20119;-74
2023/01/26 07:13:15;;;;;;;50.75;18.08;;;1.10;99.90;;;;;;5036130;28;20092;-73
2023/01/26 07:15:40;;;;;;;46.50;17.38;;;1.10;99.90;;;;;;5039085;28;20050;-74
2023/01/26 07:18:06;;;;;;;58.30;19.92;;;1.10;99.90;;;;;;5039874;28;20436;-74
2023/01/26 07:20:31;;;;;;;49.80;16.75;;;1.10;99.90;;;;;;5039399;28;20071;-74
2023/01/26 07:23:00;;;;;;;55.33;18.73;;;1.10;99.90;;;;;;5039045;28;20037;-73
2023/01/26 07:25:26;;;;;;;64.00;19.08;;;1.10;99.90;;;;;;5031972;28;20064;-73
2023/01/26 07:27:58;;;;;;;54.28;18.92;;;1.10;99.90;;;;;;5041650;28;20041;-73
2023/01/26 07:30:24;;;;;;;64.13;19.45;;;1.10;99.90;;;;;;5045511;28;20124;-73
2023/01/26 07:32:50;;;;;;;51.45;20.20;;;1.10;99.90;;;;;;5036128;28;20041;-73
2023/01/26 07:35:17;;;;;;;61.70;18.85;;;1.10;99.90;;;;;;5049397;28;20087;-73
2023/01/26 07:37:42;;;;;;;56.90;18.90;;;1.20;99.90;;;;;;5050104;28;20115;-73
2023/01/26 07:40:08;;;;;;;63.40;19.27;;;1.20;99.90;;;;;;5053925;28;20137;-73
2023/01/26 07:42:34;;;;;;;66.97;20.10;;;1.20;99.90;;;;;;5049007;28;20037;-73
2023/01/26 07:45:00;;;;;;;59.42;20.15;;;1.20;99.90;;;;;;5051245;28;20063;-73
2023/01/26 07:47:26;;;;;;;63.38;21.35;;;1.20;99.90;;;;;;5058558;28;20068;-73
2023/01/26 07:49:52;;;;;;;58.75;20.42;;;1.20;99.90;;;;;;5048996;28;20045;-73
2023/01/26 07:52:17;;;;;;;60.17;20.73;;;1.20;99.90;;;;;;5047354;28;20051;-73
2023/01/26 07:54:43;;;;;;;65.57;21.08;;;1.20;99.90;;;;;;5042393;28;20402;-73
2023/01/26 07:57:10;;;;;;;65.05;21.30;;;1.20;99.90;;;;;;5055891;28;20044;-73
2023/01/26 07:59:36;;;;;;;66.13;20.20;;;1.20;99.90;;;;;;5035053;28;20075;-73
2023/01/26 08:02:01;;;;;;;68.78;21.35;;;1.20;99.90;;;;;;5059364;28;20451;-73
2023/01/26 08:04:27;;;;;;;59.85;20.58;;;1.20;99.90;;;;;;5049902;28;20102;-73
2023/01/26 08:06:53;;;;;;;63.10;20.80;;;1.30;99.90;;;;;;5051727;28;20509;-73
2023/01/26 08:09:18;;;;;;;67.57;21.48;;;1.20;99.90;;;;;;5069912;22;20040;-63
2023/01/26 08:11:44;;;;;;;58.03;21.77;;;1.30;99.90;;;;;;5031626;28;20425;-64
2023/01/26 08:14:09;;;;;;;74.60;22.73;;;1.30;99.90;;;;;;5030442;28;20119;-62
2023/01/26 08:16:35;;;;;;;72.70;21.60;;;1.30;99.90;;;;;;5034634;28;20033;-64
2023/01/26 08:19:01;;;;;;;74.80;21.17;;;1.30;99.90;;;;;;5017680;28;20117;-63
2023/01/26 08:21:27;;;;;;;75.72;21.80;;;1.30;99.90;;;;;;5020469;28;20232;-63
2023/01/26 08:23:54;;;;;;;74.88;21.90;;;1.30;99.90;;;;;;5022619;28;20057;-64
2023/01/26 08:26:20;;;;;;;71.38;22.17;;;1.30;99.90;;;;;;5021903;28;20069;-63
2023/01/26 08:28:45;;;;;;;72.97;22.02;;;1.30;99.90;;;;;;5023612;28;20153;-64
2023/01/26 08:31:17;;;;;;;81.20;21.20;;;1.30;99.90;;;;;;5027199;28;20522;-64
2023/01/26 08:33:43;;;;;;;72.93;21.40;;;1.30;99.90;;;;;;5021988;28;20041;-64
2023/01/26 08:36:14;;;;;;;74.63;21.67;;;1.30;99.90;;;;;;5020608;28;20036;-63
2023/01/26 08:38:41;;;;;;;67.57;22.27;;;1.40;99.90;;;;;;5026345;28;20045;-63
2023/01/26 08:41:07;;;;;;;77.25;22.38;;;1.30;99.90;;;;;;5024620;28;20391;-62
2023/01/26 08:43:33;;;;;;;64.32;20.58;;;1.30;99.90;;;;;;5024947;28;20053;-63
2023/01/26 08:45:59;;;;;;;69.82;22.77;;;1.30;99.90;;;;;;5024362;28;20399;-63
2023/01/26 08:48:25;;;;;;;61.63;19.80;;;1.30;99.90;;;;;;5022555;28;20518;-61
2023/01/26 08:50:55;;;;;;;61.10;19.90;;;1.30;99.90;;;;;;5027262;28;20147;-61
2023/01/26 08:53:21;;;;;;;61.00;20.05;;;1.40;99.90;;;;;;5023842;28;20045;-64
2023/01/26 08:55:47;;;;;;;59.92;21.33;;;1.30;99.90;;;;;;5025885;28;20366;-63
2023/01/26 08:58:13;;;;;;;52.85;18.83;;;1.30;99.90;;;;;;5021302;28;21596;-63
2023/01/26 09:00:38;;;;;;;57.65;19.95;;;1.30;99.90;;;;;;5020582;28;20041;-64
2023/01/26 09:03:05;;;;;;;54.88;20.23;;;1.40;99.90;;;;;;5023394;28;20033;-63
2023/01/26 09:05:33;;;;;;;50.38;19.27;;;1.40;99.90;;;;;;5023528;28;20041;-64
2023/01/26 09:07:59;;;;;;;55.05;19.67;;;1.40;99.90;;;;;;5023437;28;20037;-63
2023/01/26 09:10:24;;;;;;;49.78;18.08;;;1.50;99.90;;;;;;5007340;28;20104;-63
2023/01/26 09:12:50;;;;;;;41.05;16.90;;;1.50;99.90;;;;;;5014763;28;20056;-63
2023/01/26 09:15:16;;;;;;;42.72;15.73;;;1.50;99.90;;;;;;5014416;28;20065;-63
2023/01/26 09:17:42;;;;;;;36.28;14.32;;;1.50;99.90;;;;;;5018971;28;20103;-63
2023/01/26 09:20:09;;;;;;;35.13;13.80;;;1.50;99.90;;;;;;5017242;28;20029;-62
2023/01/26 09:22:35;;;;;;;32.58;12.82;;;1.60;99.90;;;;;;5012968;28;20090;-60
2023/01/26 09:25:01;;;;;;;31.83;12.38;;;1.50;99.90;;;;;;5014201;28;20037;-64
2023/01/26 09:27:27;;;;;;;34.03;12.43;;;1.60;99.90;;;;;;5017713;28;20066;-63
2023/01/26 09:29:52;;;;;;;34.83;12.25;;;1.60;99.90;;;;;;5027587;28;20457;-62
2023/01/26 09:32:18;;;;;;;34.03;11.02;;;1.60;99.90;;;;;;5030747;28;20038;-63
2023/01/26 09:34:44;;;;;;;37.10;11.35;;;1.60;99.90;;;;;;5032867;28;20171;-63
2023/01/26 09:37:10;;;;;;;33.78;12.15;;;1.60;99.90;;;;;;5019500;28;20033;-64
2023/01/26 09:39:35;;;;;;;32.65;12.55;;;1.70;99.90;;;;;;5015232;28;20112;-64
2023/01/26 09:42:33;;;;;;;47.58;12.90;;;1.70;99.90;;;;;;5019594;28;20129;-61
2023/01/26 09:45:25;;;;;;;33.55;11.68;;;1.70;99.90;;;;;;5022487;28;20063;-63
2023/01/26 09:48:24;;;;;;;45.28;12.98;;;1.70;99.90;;;;;;5017134;28;20068;-63
2023/01/26 09:51:02;;;;;;;47.50;13.15;;;1.80;99.90;;;;;;5019614;28;20504;-63
2023/01/26 09:53:38;;;;;;;44.13;11.95;;;1.80;99.90;;;;;;5027954;28;20041;-63
2023/01/26 09:56:04;;;;;;;47.22;12.15;;;1.90;99.90;;;;;;5027473;28;20052;-63
2023/01/26 09:58:38;;;;;;;41.00;12.30;;;2.00;99.90;;;;;;5018972;28;20042;-63
2023/01/26 10:01:12;;;;;;;35.33;10.77;;;2.00;99.90;;;;;;5028074;28;20037;-64
2023/01/26 10:03:50;;;;;;;49.35;11.07;;;2.10;99.90;;;;;;5025958;28;20042;-63
2023/01/26 10:06:21;;;;;;;45.50;11.15;;;2.20;99.90;;;;;;5020619;28;20045;-63
2023/01/26 10:08:48;;;;;;;38.00;10.52;;;2.20;99.90;;;;;;5021924;28;20038;-62
2023/01/26 10:11:23;;;;;;;48.25;11.35;;;2.30;99.90;;;;;;5019379;28;20486;-63
2023/01/26 10:14:01;;;;;;;50.95;11.93;;;2.40;99.90;;;;;;5028877;28;20037;-63
2023/01/26 10:16:27;;;;;;;51.85;11.07;;;2.50;99.90;;;;;;5027040;28;20036;-63
2023/01/26 10:18:59;;;;;;;50.03;10.68;;;2.60;99.90;;;;;;5028248;28;20033;-63
2023/01/26 10:21:30;;;;;;;53.05;12.90;;;2.60;99.90;;;;;;5033567;28;20056;-63
2023/01/26 10:23:59;;;;;;;55.28;13.70;;;2.80;99.90;;;;;;5023461;28;20049;-63
2023/01/26 10:26:31;;;;;;;49.63;10.27;;;2.80;99.90;;;;;;5019814;28;20049;-63
2023/01/26 10:28:57;;;;;;;48.83;10.50;;;2.90;99.90;;;;;;5024630;28;20052;-64
2023/01/26 10:31:29;;;;;;;41.22;10.35;;;3.00;99.90;;;;;;5027220;28;20083;-64
2023/01/26 10:33:57;;;;;;;44.97;9.35;;;3.10;99.90;;;;;;5022088;28;20439;-63
2023/01/26 10:36:23;;;;;;;40.10;8.35;;;3.20;99.90;;;;;;5015213;28;20037;-64
2023/01/26 10:38:50;;;;;;;40.70;9.20;;;3.30;99.90;;;;;;5016447;28;20045;-63
2023/01/26 10:41:25;;;;;;;44.65;9.73;;;3.50;99.90;;;;;;5011831;28;20133;-63
2023/01/26 10:43:52;;;;;;;49.90;9.43;;;3.50;99.90;;;;;;5015111;28;20057;-63
2023/01/26 10:46:34;;;;;;;56.75;9.18;;;3.60;99.90;;;;;;5024619;28;20059;-63
2023/01/26 10:49:13;;;;;;;54.55;9.25;;;3.70;99.90;;;;;;5028705;28;20038;-63
2023/01/26 10:51:43;;;;;;;57.70;8.40;;;3.80;99.90;;;;;;5022942;28;20392;-63
2023/01/26 10:54:26;;;;;;;40.13;7.50;;;3.90;99.90;;;;;;5026810;28;20041;-63
2023/01/26 10:56:55;;;;;;;46.45;7.43;;;4.00;99.90;;;;;;5031152;28;20033;-64
2023/01/26 10:59:24;;;;;;;54.85;7.70;;;4.10;99.90;;;;;;5024523;28;20108;-63
2023/01/26 11:01:57;;;;;;;45.53;7.45;;;4.00;99.90;;;;;;5016642;28;20508;-64
2023/01/26 11:04:23;;;;;;;;;;;4.30;99.90;;;;;;5038206;28;20032;-63
2023/01/26 11:06:48;;;;;;;37.92;6.85;;;4.30;99.90;;;;;;5018311;28;20416;-61
2023/01/26 11:09:25;;;;;;;44.10;6.47;;;4.30;99.90;;;;;;5038229;28;20102;-64
2023/01/26 11:12:03;;;;;;;44.45;6.93;;;4.40;99.90;;;;;;5023428;28;20570;-63
2023/01/26 11:14:31;;;;;;;45.33;6.00;;;4.50;99.90;;;;;;5022365;28;20042;-63
2023/01/26 11:17:20;;;;;;;45.20;6.18;;;4.60;99.90;;;;;;5015887;28;20869;-63
2023/01/26 11:20:06;;;;;;;35.05;5.85;;;4.70;99.90;;;;;;5021322;28;20415;-64
2023/01/26 11:22:50;;;;;;;45.30;6.45;;;4.80;99.90;;;;;;5019541;28;20041;-63
2023/01/26 11:25:37;;;;;;;46.72;5.93;;;4.90;99.90;;;;;;5028609;28;20055;-63
2023/01/26 11:28:34;;;;;;;39.33;5.65;;;5.00;99.90;;;;;;5030862;28;20049;-62
2023/01/26 11:30:59;;;;;;;39.60;6.43;;;5.10;99.90;;;;;;5032504;28;20038;-63
2023/01/26 11:33:40;;;;;;;41.30;6.10;;;5.10;99.90;;;;;;5013424;28;20033;-63
2023/01/26 11:36:12;;;;;;;37.92;5.28;;;5.30;99.90;;;;;;5014786;28;20104;-62
2023/01/26 11:38:44;;;;;;;36.42;4.60;;;5.30;99.90;;;;;;5023069;28;20116;-62
2023/01/26 11:41:31;;;;;;;40.10;4.95;;;5.30;99.90;;;;;;5029855;28;20044;-61
2023/01/26 11:44:29;;;;;;;34.83;5.00;;;5.40;99.90;;;;;;5035439;28;20120;-63
2023/01/26 11:47:19;;;;;;;35.92;5.10;;;5.50;99.90;;;;;;5039661;28;20487;-63
2023/01/26 11:49:56;;;;;;;31.88;4.22;;;5.60;99.90;;;;;;5037728;28;20045;-63
2023/01/26 11:52:37;;;;;;;34.65;4.20;;;5.70;99.90;;;;;;5029489;28;20044;-62
2023/01/26 11:55:37;;;;;;;27.92;3.83;;;5.80;99.90;;;;;;5031839;28;20044;-62
2023/01/26 11:58:09;;;;;;;23.17;3.45;;;5.90;99.90;;;;;;5030961;28;20033;-63
2023/01/26 12:00:41;;;;;;;32.83;3.92;;;6.00;99.90;;;;;;5023345;28;20073;-62
2023/01/26 12:03:39;;;;;;;34.63;7.40;;;6.10;99.90;;;;;;5027517;28;20087;-63
2023/01/26 12:06:07;;;;;;;27.55;4.95;;;6.10;99.90;;;;;;5035057;28;20038;-62
2023/01/26 12:08:44;;;;;;;22.10;4.07;;;6.10;99.90;;;;;;5040872;28;20041;-62
2023/01/26 12:11:23;;;;;;;25.17;4.22;;;6.20;99.90;;;;;;5039613;28;20044;-63
2023/01/26 12:14:09;;;;;;;25.17;4.32;;;6.30;99.90;;;;;;5037214;28;20365;-63
2023/01/26 12:16:54;;;;;;;23.90;3.42;;;6.30;99.90;;;;;;5024769;28;20065;-63
2023/01/26 12:19:51;;;;;;;25.45;3.83;;;6.30;99.90;;;;;;5028089;28;20536;-63
2023/01/26 12:22:28;;;;;;;23.38;3.20;;;6.30;99.90;;;;;;5029132;28;20057;-62
2023/01/26 12:25:00;;;;;;;17.77;3.00;;;6.50;99.90;;;;;;5038269;28;20041;-63
2023/01/26 12:27:41;;;;;;;19.80;2.75;;;6.60;99.90;;;;;;5028690;28;20046;-62
2023/01/26 12:30:47;;;;;;;20.98;3.53;;;6.60;99.90;;;;;;5038565;28;20098;-63
2023/01/26 12:33:13;;;;;;;19.60;2.70;;;6.70;99.90;;;;;;4997435;28;20133;-63
2023/01/26 12:36:15;;;;;;;25.27;3.25;;;6.70;99.90;;;;;;5029020;28;20040;-63
2023/01/26 12:38:49;;;;;;;28.10;3.33;;;6.80;99.90;;;;;;4998796;28;20123;-63
2023/01/26 12:41:44;;;;;;;18.20;3.03;;;6.90;99.90;;;;;;5027719;28;20445;-61
2023/01/26 12:44:21;;;;;;;20.20;3.60;;;6.90;99.90;;;;;;5032221;28;20041;-62
2023/01/26 12:46:53;;;;;;;24.63;3.47;;;7.00;99.90;;;;;;5023102;28;20045;-63
2023/01/26 12:49:27;;;;;;;15.70;2.78;;;7.00;99.90;;;;;;5026590;28;20037;-63
2023/01/26 12:52:00;;;;;;;22.35;2.60;;;7.10;99.90;;;;;;5023011;28;20120;-63
2023/01/26 12:55:03;;;;;;;16.33;2.47;;;7.20;99.90;;;;;;5024814;28;20060;-61
2023/01/26 12:57:37;;;;;;;19.08;3.03;;;7.20;99.90;;;;;;5025744;28;20064;-63
2023/01/26 13:00:29;;;;;;;16.45;2.28;;;7.20;99.90;;;;;;5024498;28;20426;-63
2023/01/26 13:03:12;;;;;;;19.65;3.47;;;7.20;99.90;;;;;;5035555;28;20063;-63
2023/01/26 13:05:57;;;;;;;11.90;2.13;;;7.20;99.90;;;;;;5033877;28;20033;-63
2023/01/26 13:08:50;;;;;;;18.98;3.17;;;7.20;99.90;;;;;;5029708;28;20376;-63
2023/01/26 13:11:45;;;;;;;12.32;2.67;;;7.10;99.90;;;;;;5036902;28;20063;-63
2023/01/26 13:14:41;;;;;;;21.65;3.05;;;7.10;99.90;;;;;;5039917;28;20042;-62
2023/01/26 13:17:16;;;;;;;10.63;2.42;;;7.00;99.90;;;;;;5030133;28;20033;-63
2023/01/26 13:19:41;;;;;;;14.05;2.28;;;7.00;99.90;;;;;;5026661;28;20453;-63
2023/01/26 13:22:22;;;;;;;16.60;2.72;;;7.00;99.90;;;;;;5039752;28;20116;-63
2023/01/26 13:24:55;;;;;;;9.30;2.10;;;7.00;99.90;;;;;;5035735;28;20776;-62
2023/01/26 13:27:44;;;;;;;13.10;2.53;;;7.00;99.90;;;;;;5033003;28;20033;-62
2023/01/26 13:30:22;;;;;;;13.35;2.45;;;6.90;99.90;;;;;;5033041;28;20033;-63
2023/01/26 13:32:47;;;;;;;12.60;2.15;;;7.00;99.90;;;;;;5043010;28;20032;-63
2023/01/26 13:35:16;;;;;;;11.88;2.10;;;6.80;99.90;;;;;;5035876;28;20038;-63
2023/01/26 13:37:51;;;;;;;12.73;3.28;;;6.80;99.90;;;;;;5036587;28;20487;-63
2023/01/26 13:40:17;;;;;;;11.80;2.22;;;6.80;99.90;;;;;;5027979;28;20215;-63
2023/01/26 13:43:01;;;;;;;13.05;2.35;;;6.80;99.90;;;;;;5045592;28;20052;-63